sensor_id;sensor_type;location;lat;lon;timestamp;temperature;humidity
28524;DHT22;15734;50.904;6.922;2023-09-18T00:01:11;20.00;99.90
28524;DHT22;15734;50.904;6.922;2023-09-18T00:03:37;20.00;99.90
28524;DHT22;15734;50.904;6.922;2023-09-18T00:06:02;20.00;99.90
28524;DHT22;15734;50.904;6.922;2023-09-18T00:08:28;20.00;99.90
28524;DHT22;15734;50.904;6.922;2023-09-18T00:10:55;20.00;99.90
28524;DHT22;15734;50.904;6.922;2023-09-18T00:13:21;20.00;99.90
28524;DHT22;15734;50.904;6.922;2023-09-18T00:15:47;20.00;99.90
28524;DHT22;15734;50.904;6.922;2023-09-18T00:18:15;20.00;99.90
28524;DHT22;15734;50.904;6.922;2023-09-18T00:20:40;20.00;99.90
28524;DHT22;15734;50.904;6.922;2023-09-18T00:23:07;20.00;99.90
28524;DHT22;15734;50.904;6.922;2023-09-18T00:25:33;20.00;99.90
28524;DHT22;15734;50.904;6.922;2023-09-18T00:27:59;20.00;99.90
28524;DHT22;15734;50.904;6.922;2023-09-18T00:30:24;20.00;99.90
28524;DHT22;15734;50.904;6.922;2023-09-18T00:32:50;20.00;99.90
28524;DHT22;15734;50.904;6.922;2023-09-18T00:35:16;20.00;99.90
28524;DHT22;15734;50.904;6.922;2023-09-18T00:37:41;20.00;99.90
28524;DHT22;15734;50.904;6.922;2023-09-18T00:40:08;20.00;99.90
28524;DHT22;15734;50.904;6.922;2023-09-18T00:42:34;20.00;99.90
28524;DHT22;15734;50.904;6.922;2023-09-18T00:45:00;20.00;99.90
28524;DHT22;15734;50.904;6.922;2023-09-18T00:47:25;20.00;99.90
28524;DHT22;15734;50.904;6.922;2023-09-18T00:49:52;20.00;99.90
28524;DHT22;15734;50.904;6.922;2023-09-18T00:52:19;20.00;99.90
28524;DHT22;15734;50.904;6.922;2023-09-18T00:54:46;19.90;99.90
28524;DHT22;15734;50.904;6.922;2023-09-18T00:57:13;19.80;99.90
28524;DHT22;15734;50.904;6.922;2023-09-18T00:59:39;19.70;99.90
28524;DHT22;15734;50.904;6.922;2023-09-18T01:02:05;19.70;99.90
28524;DHT22;15734;50.904;6.922;2023-09-18T01:04:33;19.70;99.90
28524;DHT22;15734;50.904;6.922;2023-09-18T01:07:01;19.70;99.90
28524;DHT22;15734;50.904;6.922;2023-09-18T01:09:30;19.70;99.90
28524;DHT22;15734;50.904;6.922;2023-09-18T01:12:44;19.70;99.90
28524;DHT22;15734;50.904;6.922;2023-09-18T01:14:57;19.70;99.90
28524;DHT22;15734;50.904;6.922;2023-09-18T01:17:24;19.70;99.90
28524;DHT22;15734;50.904;6.922;2023-09-18T01:19:50;19.70;99.90
28524;DHT22;15734;50.904;6.922;2023-09-18T01:22:17;19.70;99.90
28524;DHT22;15734;50.904;6.922;2023-09-18T01:24:45;19.70;99.90
28524;DHT22;15734;50.904;6.922;2023-09-18T01:27:12;19.70;99.90
28524;DHT22;15734;50.904;6.922;2023-09-18T01:29:45;19.70;99.90
28524;DHT22;15734;50.904;6.922;2023-09-18T01:32:11;19.70;99.90
28524;DHT22;15734;50.904;6.922;2023-09-18T01:34:45;19.70;99.90
28524;DHT22;15734;50.904;6.922;2023-09-18T01:37:11;19.70;99.90
28524;DHT22;15734;50.904;6.922;2023-09-18T01:39:38;19.70;99.90
28524;DHT22;15734;50.904;6.922;2023-09-18T01:42:05;19.70;99.90
28524;DHT22;15734;50.904;6.922;2023-09-18T01:44:33;19.70;99.90
28524;DHT22;15734;50.904;6.922;2023-09-18T01:47:00;19.70;99.90
28524;DHT22;15734;50.904;6.922;2023-09-18T01:49:32;19.70;99.90
28524;DHT22;15734;50.904;6.922;2023-09-18T01:51:58;19.80;99.90
28524;DHT22;15734;50.904;6.922;2023-09-18T01:54:24;19.80;99.90
28524;DHT22;15734;50.904;6.922;2023-09-18T01:56:51;19.80;99.90
28524;DHT22;15734;50.904;6.922;2023-09-18T01:59:17;19.90;99.90
28524;DHT22;15734;50.904;6.922;2023-09-18T02:01:43;19.90;99.90
28524;DHT22;15734;50.904;6.922;2023-09-18T02:04:09;19.90;99.90
28524;DHT22;15734;50.904;6.922;2023-09-18T02:06:35;19.90;99.90
28524;DHT22;15734;50.904;6.922;2023-09-18T02:09:01;19.90;99.90
28524;DHT22;15734;50.904;6.922;2023-09-18T02:11:27;19.90;99.90
28524;DHT22;15734;50.904;6.922;2023-09-18T02:13:53;19.90;99.90
28524;DHT22;15734;50.904;6.922;2023-09-18T02:16:18;19.90;99.90
28524;DHT22;15734;50.904;6.922;2023-09-18T02:18:46;20.00;99.90
28524;DHT22;15734;50.904;6.922;2023-09-18T02:21:19;20.00;99.90
28524;DHT22;15734;50.904;6.922;2023-09-18T02:23:45;20.10;99.90
28524;DHT22;15734;50.904;6.922;2023-09-18T02:26:10;20.10;99.90
28524;DHT22;15734;50.904;6.922;2023-09-18T02:28:36;20.10;99.90
28524;DHT22;15734;50.904;6.922;2023-09-18T02:31:02;20.10;99.90
28524;DHT22;15734;50.904;6.922;2023-09-18T02:33:28;20.10;99.90
28524;DHT22;15734;50.904;6.922;2023-09-18T02:35:53;20.10;99.90
28524;DHT22;15734;50.904;6.922;2023-09-18T02:38:19;20.10;99.90
28524;DHT22;15734;50.904;6.922;2023-09-18T02:40:44;20.20;99.90
28524;DHT22;15734;50.904;6.922;2023-09-18T02:43:10;20.10;99.90
28524;DHT22;15734;50.904;6.922;2023-09-18T02:45:35;20.10;99.90
28524;DHT22;15734;50.904;6.922;2023-09-18T02:48:01;20.00;99.90
28524;DHT22;15734;50.904;6.922;2023-09-18T02:50:26;20.00;99.90
28524;DHT22;15734;50.904;6.922;2023-09-18T02:52:52;20.00;99.90
28524;DHT22;15734;50.904;6.922;2023-09-18T02:55:17;19.90;99.90
28524;DHT22;15734;50.904;6.922;2023-09-18T02:57:43;19.90;99.90
28524;DHT22;15734;50.904;6.922;2023-09-18T03:00:09;19.90;99.90
28524;DHT22;15734;50.904;6.922;2023-09-18T03:02:34;19.90;99.90
28524;DHT22;15734;50.904;6.922;2023-09-18T03:05:01;19.90;99.90
28524;DHT22;15734;50.904;6.922;2023-09-18T03:07:26;19.80;99.90
28524;DHT22;15734;50.904;6.922;2023-09-18T03:09:55;19.80;99.90
28524;DHT22;15734;50.904;6.922;2023-09-18T03:12:20;19.80;99.90
28524;DHT22;15734;50.904;6.922;2023-09-18T03:14:47;19.80;99.90
28524;DHT22;15734;50.904;6.922;2023-09-18T03:17:13;19.70;99.90
28524;DHT22;15734;50.904;6.922;2023-09-18T03:19:39;19.70;99.90
28524;DHT22;15734;50.904;6.922;2023-09-18T03:22:04;19.70;99.90
28524;DHT22;15734;50.904;6.922;2023-09-18T03:24:30;19.60;99.90
28524;DHT22;15734;50.904;6.922;2023-09-18T03:26:55;19.60;99.90
28524;DHT22;15734;50.904;6.922;2023-09-18T03:29:21;19.60;99.90
28524;DHT22;15734;50.904;6.922;2023-09-18T03:31:46;19.60;99.90
28524;DHT22;15734;50.904;6.922;2023-09-18T03:34:12;19.60;99.90
28524;DHT22;15734;50.904;6.922;2023-09-18T03:36:38;19.60;99.90
28524;DHT22;15734;50.904;6.922;2023-09-18T03:39:04;19.60;99.90
28524;DHT22;15734;50.904;6.922;2023-09-18T03:41:30;19.60;99.90
28524;DHT22;15734;50.904;6.922;2023-09-18T03:44:02;19.70;99.90
28524;DHT22;15734;50.904;6.922;2023-09-18T03:46:28;19.70;99.90
28524;DHT22;15734;50.904;6.922;2023-09-18T03:48:53;19.80;99.90
28524;DHT22;15734;50.904;6.922;2023-09-18T03:51:20;19.90;99.90
28524;DHT22;15734;50.904;6.922;2023-09-18T03:53:45;19.90;99.90
28524;DHT22;15734;50.904;6.922;2023-09-18T03:56:13;19.90;99.90
28524;DHT22;15734;50.904;6.922;2023-09-18T03:58:38;20.00;99.90
28524;DHT22;15734;50.904;6.922;2023-09-18T04:01:04;20.00;99.90
28524;DHT22;15734;50.904;6.922;2023-09-18T04:03:29;20.00;99.90
28524;DHT22;15734;50.904;6.922;2023-09-18T04:05:55;19.90;99.90
28524;DHT22;15734;50.904;6.922;2023-09-18T04:08:20;20.00;99.90
28524;DHT22;15734;50.904;6.922;2023-09-18T04:10:46;20.00;99.90
28524;DHT22;15734;50.904;6.922;2023-09-18T04:13:12;20.00;99.90
28524;DHT22;15734;50.904;6.922;2023-09-18T04:15:38;20.00;99.90
28524;DHT22;15734;50.904;6.922;2023-09-18T04:18:06;20.00;99.90
28524;DHT22;15734;50.904;6.922;2023-09-18T04:20:32;20.00;99.90
28524;DHT22;15734;50.904;6.922;2023-09-18T04:23:17;20.00;99.90
28524;DHT22;15734;50.904;6.922;2023-09-18T04:25:42;19.90;99.90
28524;DHT22;15734;50.904;6.922;2023-09-18T04:28:08;19.90;99.90
28524;DHT22;15734;50.904;6.922;2023-09-18T04:30:33;19.80;99.90
28524;DHT22;15734;50.904;6.922;2023-09-18T04:32:59;19.80;99.90
28524;DHT22;15734;50.904;6.922;2023-09-18T04:35:24;19.70;99.90
28524;DHT22;15734;50.904;6.922;2023-09-18T04:37:55;19.70;99.90
28524;DHT22;15734;50.904;6.922;2023-09-18T04:40:21;19.70;99.90
28524;DHT22;15734;50.904;6.922;2023-09-18T04:42:46;19.70;99.90
28524;DHT22;15734;50.904;6.922;2023-09-18T04:45:12;19.70;99.90
28524;DHT22;15734;50.904;6.922;2023-09-18T04:47:37;19.70;99.90
28524;DHT22;15734;50.904;6.922;2023-09-18T04:50:03;19.60;99.90
28524;DHT22;15734;50.904;6.922;2023-09-18T04:52:32;19.60;99.90
28524;DHT22;15734;50.904;6.922;2023-09-18T04:54:57;19.50;99.90
28524;DHT22;15734;50.904;6.922;2023-09-18T04:57:23;19.60;99.90
28524;DHT22;15734;50.904;6.922;2023-09-18T04:59:48;19.60;99.90
28524;DHT22;15734;50.904;6.922;2023-09-18T05:02:14;19.60;99.90
28524;DHT22;15734;50.904;6.922;2023-09-18T05:04:40;19.60;99.90
28524;DHT22;15734;50.904;6.922;2023-09-18T05:07:05;19.70;99.90
28524;DHT22;15734;50.904;6.922;2023-09-18T05:09:31;19.70;99.90
28524;DHT22;15734;50.904;6.922;2023-09-18T05:11:57;19.70;99.90
28524;DHT22;15734;50.904;6.922;2023-09-18T05:14:23;19.70;99.90
28524;DHT22;15734;50.904;6.922;2023-09-18T05:16:49;19.70;99.90
28524;DHT22;15734;50.904;6.922;2023-09-18T05:19:14;19.70;99.90
28524;DHT22;15734;50.904;6.922;2023-09-18T05:21:40;19.70;99.90
28524;DHT22;15734;50.904;6.922;2023-09-18T05:24:05;19.70;99.90
28524;DHT22;15734;50.904;6.922;2023-09-18T05:26:31;19.70;99.90
28524;DHT22;15734;50.904;6.922;2023-09-18T05:28:57;19.70;99.90
28524;DHT22;15734;50.904;6.922;2023-09-18T05:31:22;19.60;99.90
28524;DHT22;15734;50.904;6.922;2023-09-18T05:33:49;19.60;99.90
28524;DHT22;15734;50.904;6.922;2023-09-18T05:36:15;19.60;99.90
28524;DHT22;15734;50.904;6.922;2023-09-18T05:38:41;19.60;99.90
28524;DHT22;15734;50.904;6.922;2023-09-18T05:41:08;19.60;99.90
28524;DHT22;15734;50.904;6.922;2023-09-18T05:43:35;19.60;99.90
28524;DHT22;15734;50.904;6.922;2023-09-18T05:46:01;19.60;99.90
28524;DHT22;15734;50.904;6.922;2023-09-18T05:48:27;19.60;99.90
28524;DHT22;15734;50.904;6.922;2023-09-18T05:50:52;19.60;99.90
28524;DHT22;15734;50.904;6.922;2023-09-18T05:53:20;19.60;99.90
28524;DHT22;15734;50.904;6.922;2023-09-18T05:55:45;19.70;99.90
28524;DHT22;15734;50.904;6.922;2023-09-18T05:58:11;19.60;99.90
28524;DHT22;15734;50.904;6.922;2023-09-18T06:00:36;19.70;99.90
28524;DHT22;15734;50.904;6.922;2023-09-18T06:03:02;19.70;99.90
28524;DHT22;15734;50.904;6.922;2023-09-18T06:05:28;19.70;99.90
28524;DHT22;15734;50.904;6.922;2023-09-18T06:07:56;19.80;99.90
28524;DHT22;15734;50.904;6.922;2023-09-18T06:10:22;19.80;99.90
28524;DHT22;15734;50.904;6.922;2023-09-18T06:12:47;19.80;99.90
28524;DHT22;15734;50.904;6.922;2023-09-18T06:15:13;19.80;99.90
28524;DHT22;15734;50.904;6.922;2023-09-18T06:17:41;19.80;99.90
28524;DHT22;15734;50.904;6.922;2023-09-18T06:20:08;19.80;99.90
28524;DHT22;15734;50.904;6.922;2023-09-18T06:22:38;19.80;99.90
28524;DHT22;15734;50.904;6.922;2023-09-18T06:25:05;19.90;99.90
28524;DHT22;15734;50.904;6.922;2023-09-18T06:27:33;19.90;99.90
28524;DHT22;15734;50.904;6.922;2023-09-18T06:30:00;20.00;99.90
28524;DHT22;15734;50.904;6.922;2023-09-18T06:32:26;20.00;99.90
28524;DHT22;15734;50.904;6.922;2023-09-18T06:34:51;20.00;99.90
28524;DHT22;15734;50.904;6.922;2023-09-18T06:37:17;20.00;99.90
28524;DHT22;15734;50.904;6.922;2023-09-18T06:39:43;20.00;99.90
28524;DHT22;15734;50.904;6.922;2023-09-18T06:42:09;20.10;99.90
28524;DHT22;15734;50.904;6.922;2023-09-18T06:44:34;20.10;99.90
28524;DHT22;15734;50.904;6.922;2023-09-18T06:47:00;20.10;99.90
28524;DHT22;15734;50.904;6.922;2023-09-18T06:49:26;20.20;99.90
28524;DHT22;15734;50.904;6.922;2023-09-18T06:51:52;20.20;99.90
28524;DHT22;15734;50.904;6.922;2023-09-18T06:54:17;20.20;99.90
28524;DHT22;15734;50.904;6.922;2023-09-18T06:56:43;20.20;99.90
28524;DHT22;15734;50.904;6.922;2023-09-18T06:59:10;20.20;99.90
28524;DHT22;15734;50.904;6.922;2023-09-18T07:01:37;20.30;99.90
28524;DHT22;15734;50.904;6.922;2023-09-18T07:04:03;20.40;99.90
28524;DHT22;15734;50.904;6.922;2023-09-18T07:06:30;20.40;99.90
28524;DHT22;15734;50.904;6.922;2023-09-18T07:08:55;20.50;99.90
28524;DHT22;15734;50.904;6.922;2023-09-18T07:11:21;20.50;99.90
28524;DHT22;15734;50.904;6.922;2023-09-18T07:13:47;20.60;99.90
28524;DHT22;15734;50.904;6.922;2023-09-18T07:16:13;20.60;99.90
28524;DHT22;15734;50.904;6.922;2023-09-18T07:18:38;20.70;99.90
28524;DHT22;15734;50.904;6.922;2023-09-18T07:21:04;20.70;99.90
28524;DHT22;15734;50.904;6.922;2023-09-18T07:23:30;20.80;99.90
28524;DHT22;15734;50.904;6.922;2023-09-18T07:25:55;20.90;99.90
28524;DHT22;15734;50.904;6.922;2023-09-18T07:28:24;20.90;99.90
28524;DHT22;15734;50.904;6.922;2023-09-18T07:30:49;21.00;99.90
28524;DHT22;15734;50.904;6.922;2023-09-18T07:33:15;21.00;99.90
28524;DHT22;15734;50.904;6.922;2023-09-18T07:35:45;21.00;99.90
28524;DHT22;15734;50.904;6.922;2023-09-18T07:38:12;21.00;99.90
28524;DHT22;15734;50.904;6.922;2023-09-18T07:40:38;21.00;99.90
28524;DHT22;15734;50.904;6.922;2023-09-18T07:43:03;21.10;99.90
28524;DHT22;15734;50.904;6.922;2023-09-18T07:45:29;21.10;99.90
28524;DHT22;15734;50.904;6.922;2023-09-18T07:47:54;21.10;99.90
28524;DHT22;15734;50.904;6.922;2023-09-18T07:50:20;21.10;99.90
28524;DHT22;15734;50.904;6.922;2023-09-18T07:52:45;21.10;99.90
28524;DHT22;15734;50.904;6.922;2023-09-18T07:55:11;21.20;99.90
28524;DHT22;15734;50.904;6.922;2023-09-18T07:57:36;21.10;99.90
28524;DHT22;15734;50.904;6.922;2023-09-18T08:00:03;21.20;99.90
28524;DHT22;15734;50.904;6.922;2023-09-18T08:02:34;21.20;99.90
28524;DHT22;15734;50.904;6.922;2023-09-18T08:05:01;21.20;99.90
28524;DHT22;15734;50.904;6.922;2023-09-18T08:07:27;21.20;99.90
28524;DHT22;15734;50.904;6.922;2023-09-18T08:09:53;21.20;99.90
28524;DHT22;15734;50.904;6.922;2023-09-18T08:12:19;21.10;99.90
28524;DHT22;15734;50.904;6.922;2023-09-18T08:14:44;21.10;99.90
28524;DHT22;15734;50.904;6.922;2023-09-18T08:17:10;21.20;99.90
28524;DHT22;15734;50.904;6.922;2023-09-18T08:19:36;21.20;99.90
28524;DHT22;15734;50.904;6.922;2023-09-18T08:22:01;21.30;99.90
28524;DHT22;15734;50.904;6.922;2023-09-18T08:24:29;21.40;99.90
28524;DHT22;15734;50.904;6.922;2023-09-18T08:26:54;21.40;99.90
28524;DHT22;15734;50.904;6.922;2023-09-18T08:29:21;21.30;99.90
28524;DHT22;15734;50.904;6.922;2023-09-18T08:31:47;21.40;99.90
28524;DHT22;15734;50.904;6.922;2023-09-18T08:34:13;21.40;99.90
28524;DHT22;15734;50.904;6.922;2023-09-18T08:36:39;21.50;99.90
28524;DHT22;15734;50.904;6.922;2023-09-18T08:39:05;21.50;99.90
28524;DHT22;15734;50.904;6.922;2023-09-18T08:41:31;21.60;99.90
28524;DHT22;15734;50.904;6.922;2023-09-18T08:44:02;21.50;99.90
28524;DHT22;15734;50.904;6.922;2023-09-18T08:46:31;21.60;99.90
28524;DHT22;15734;50.904;6.922;2023-09-18T08:48:58;21.60;99.90
28524;DHT22;15734;50.904;6.922;2023-09-18T08:51:24;21.60;99.90
28524;DHT22;15734;50.904;6.922;2023-09-18T08:53:50;21.70;99.90
28524;DHT22;15734;50.904;6.922;2023-09-18T08:56:17;21.60;99.90
28524;DHT22;15734;50.904;6.922;2023-09-18T08:58:44;21.70;99.90
28524;DHT22;15734;50.904;6.922;2023-09-18T09:01:10;21.80;99.90
28524;DHT22;15734;50.904;6.922;2023-09-18T09:03:37;21.80;99.90
28524;DHT22;15734;50.904;6.922;2023-09-18T09:06:04;21.90;99.90
28524;DHT22;15734;50.904;6.922;2023-09-18T09:08:30;21.90;99.90
28524;DHT22;15734;50.904;6.922;2023-09-18T09:10:56;21.90;99.90
28524;DHT22;15734;50.904;6.922;2023-09-18T09:13:25;22.00;99.90
28524;DHT22;15734;50.904;6.922;2023-09-18T09:15:55;22.00;99.90
28524;DHT22;15734;50.904;6.922;2023-09-18T09:18:26;22.00;99.90
28524;DHT22;15734;50.904;6.922;2023-09-18T09:20:57;22.00;99.90
28524;DHT22;15734;50.904;6.922;2023-09-18T09:23:26;22.10;99.90
28524;DHT22;15734;50.904;6.922;2023-09-18T09:25:51;22.00;99.90
28524;DHT22;15734;50.904;6.922;2023-09-18T09:28:31;22.10;99.90
28524;DHT22;15734;50.904;6.922;2023-09-18T09:31:01;22.20;99.90
28524;DHT22;15734;50.904;6.922;2023-09-18T09:33:30;22.20;99.90
28524;DHT22;15734;50.904;6.922;2023-09-18T09:35:56;22.10;99.90
28524;DHT22;15734;50.904;6.922;2023-09-18T09:38:28;22.20;99.90
28524;DHT22;15734;50.904;6.922;2023-09-18T09:40:57;22.10;99.90
28524;DHT22;15734;50.904;6.922;2023-09-18T09:43:26;22.20;99.90
28524;DHT22;15734;50.904;6.922;2023-09-18T09:45:57;22.20;99.90
28524;DHT22;15734;50.904;6.922;2023-09-18T09:48:23;22.30;99.90
28524;DHT22;15734;50.904;6.922;2023-09-18T09:50:50;22.40;99.90
28524;DHT22;15734;50.904;6.922;2023-09-18T09:53:17;22.50;99.90
28524;DHT22;15734;50.904;6.922;2023-09-18T09:55:44;22.40;99.90
28524;DHT22;15734;50.904;6.922;2023-09-18T09:58:10;22.50;99.90
28524;DHT22;15734;50.904;6.922;2023-09-18T10:00:43;22.50;99.90
28524;DHT22;15734;50.904;6.922;2023-09-18T10:03:11;22.40;99.90
28524;DHT22;15734;50.904;6.922;2023-09-18T10:05:39;22.50;99.90
28524;DHT22;15734;50.904;6.922;2023-09-18T10:08:10;22.40;99.90
28524;DHT22;15734;50.904;6.922;2023-09-18T10:11:01;22.40;99.90
28524;DHT22;15734;50.904;6.922;2023-09-18T10:13:34;22.60;99.90
28524;DHT22;15734;50.904;6.922;2023-09-18T10:16:04;22.70;99.90
28524;DHT22;15734;50.904;6.922;2023-09-18T10:19:02;22.90;99.90
28524;DHT22;15734;50.904;6.922;2023-09-18T10:21:41;23.10;99.90
28524;DHT22;15734;50.904;6.922;2023-09-18T10:26:35;23.50;99.90
28524;DHT22;15734;50.904;6.922;2023-09-18T10:29:04;23.60;99.90
28524;DHT22;15734;50.904;6.922;2023-09-18T10:31:33;23.50;99.90
28524;DHT22;15734;50.904;6.922;2023-09-18T10:34:01;23.70;99.90
28524;DHT22;15734;50.904;6.922;2023-09-18T10:36:28;23.90;99.90
28524;DHT22;15734;50.904;6.922;2023-09-18T10:38:55;24.00;99.90
28524;DHT22;15734;50.904;6.922;2023-09-18T10:41:22;24.20;99.90
28524;DHT22;15734;50.904;6.922;2023-09-18T10:43:51;24.40;99.90
28524;DHT22;15734;50.904;6.922;2023-09-18T10:46:18;24.50;99.90
28524;DHT22;15734;50.904;6.922;2023-09-18T10:48:44;24.70;99.90
28524;DHT22;15734;50.904;6.922;2023-09-18T10:51:12;24.70;99.90
28524;DHT22;15734;50.904;6.922;2023-09-18T10:53:39;24.60;99.90
28524;DHT22;15734;50.904;6.922;2023-09-18T10:56:05;24.70;99.90
28524;DHT22;15734;50.904;6.922;2023-09-18T10:58:32;24.70;99.90
28524;DHT22;15734;50.904;6.922;2023-09-18T11:01:02;24.90;99.90
28524;DHT22;15734;50.904;6.922;2023-09-18T11:03:27;24.70;99.90
28524;DHT22;15734;50.904;6.922;2023-09-18T11:06:04;24.90;99.90
28524;DHT22;15734;50.904;6.922;2023-09-18T11:08:34;24.90;99.90
28524;DHT22;15734;50.904;6.922;2023-09-18T11:11:08;25.20;99.90
28524;DHT22;15734;50.904;6.922;2023-09-18T11:13:44;25.10;99.90
28524;DHT22;15734;50.904;6.922;2023-09-18T11:16:17;25.20;99.90
28524;DHT22;15734;50.904;6.922;2023-09-18T11:18:47;25.10;99.90
28524;DHT22;15734;50.904;6.922;2023-09-18T11:21:15;25.20;99.90
28524;DHT22;15734;50.904;6.922;2023-09-18T11:23:42;25.40;99.90
28524;DHT22;15734;50.904;6.922;2023-09-18T11:26:15;25.20;99.90
28524;DHT22;15734;50.904;6.922;2023-09-18T11:28:40;25.50;99.90
28524;DHT22;15734;50.904;6.922;2023-09-18T11:31:08;25.50;99.90
28524;DHT22;15734;50.904;6.922;2023-09-18T11:36:08;25.80;99.90
28524;DHT22;15734;50.904;6.922;2023-09-18T11:38:56;25.80;99.90
28524;DHT22;15734;50.904;6.922;2023-09-18T11:41:24;26.00;99.90
28524;DHT22;15734;50.904;6.922;2023-09-18T11:43:51;26.20;99.90
28524;DHT22;15734;50.904;6.922;2023-09-18T11:46:21;26.40;99.90
28524;DHT22;15734;50.904;6.922;2023-09-18T11:48:48;26.60;99.90
28524;DHT22;15734;50.904;6.922;2023-09-18T11:51:21;26.20;99.90
28524;DHT22;15734;50.904;6.922;2023-09-18T11:53:47;26.10;99.90
28524;DHT22;15734;50.904;6.922;2023-09-18T11:56:15;26.40;99.90
28524;DHT22;15734;50.904;6.922;2023-09-18T11:58:50;26.50;99.90
28524;DHT22;15734;50.904;6.922;2023-09-18T12:01:18;26.60;99.90
28524;DHT22;15734;50.904;6.922;2023-09-18T12:03:44;26.70;99.90
28524;DHT22;15734;50.904;6.922;2023-09-18T12:06:10;26.80;99.90
28524;DHT22;15734;50.904;6.922;2023-09-18T12:08:42;26.60;99.90
28524;DHT22;15734;50.904;6.922;2023-09-18T12:11:08;26.90;99.90
28524;DHT22;15734;50.904;6.922;2023-09-18T12:13:34;27.10;99.90
28524;DHT22;15734;50.904;6.922;2023-09-18T12:16:00;26.90;99.90
28524;DHT22;15734;50.904;6.922;2023-09-18T12:18:27;26.80;99.90
28524;DHT22;15734;50.904;6.922;2023-09-18T12:20:56;26.60;99.90
28524;DHT22;15734;50.904;6.922;2023-09-18T12:23:24;26.60;99.90
28524;DHT22;15734;50.904;6.922;2023-09-18T12:25:56;27.00;99.90
28524;DHT22;15734;50.904;6.922;2023-09-18T12:28:22;27.20;99.90
28524;DHT22;15734;50.904;6.922;2023-09-18T12:30:48;27.00;99.90
28524;DHT22;15734;50.904;6.922;2023-09-18T12:33:16;27.20;99.90
28524;DHT22;15734;50.904;6.922;2023-09-18T12:35:42;27.20;99.90
28524;DHT22;15734;50.904;6.922;2023-09-18T12:38:18;26.80;99.90
28524;DHT22;15734;50.904;6.922;2023-09-18T12:40:50;27.40;99.90
28524;DHT22;15734;50.904;6.922;2023-09-18T12:43:17;27.40;99.90
28524;DHT22;15734;50.904;6.922;2023-09-18T12:45:43;27.90;99.90
28524;DHT22;15734;50.904;6.922;2023-09-18T12:48:09;27.70;99.90
28524;DHT22;15734;50.904;6.922;2023-09-18T12:50:36;27.80;99.90
28524;DHT22;15734;50.904;6.922;2023-09-18T12:53:14;27.80;99.90
28524;DHT22;15734;50.904;6.922;2023-09-18T12:55:41;27.50;99.90
28524;DHT22;15734;50.904;6.922;2023-09-18T12:58:11;27.50;99.90
28524;DHT22;15734;50.904;6.922;2023-09-18T13:00:37;27.50;99.90
28524;DHT22;15734;50.904;6.922;2023-09-18T13:03:12;27.70;99.90
28524;DHT22;15734;50.904;6.922;2023-09-18T13:05:38;27.80;99.90
28524;DHT22;15734;50.904;6.922;2023-09-18T13:08:04;27.70;99.90
28524;DHT22;15734;50.904;6.922;2023-09-18T13:10:44;27.40;99.90
28524;DHT22;15734;50.904;6.922;2023-09-18T13:13:22;27.70;99.90
28524;DHT22;15734;50.904;6.922;2023-09-18T13:15:49;27.20;99.90
28524;DHT22;15734;50.904;6.922;2023-09-18T13:18:16;27.30;99.90
28524;DHT22;15734;50.904;6.922;2023-09-18T13:20:43;27.60;99.90
28524;DHT22;15734;50.904;6.922;2023-09-18T13:23:09;27.70;99.70
28524;DHT22;15734;50.904;6.922;2023-09-18T13:25:37;27.90;99.50
28524;DHT22;15734;50.904;6.922;2023-09-18T13:28:06;27.60;99.90
28524;DHT22;15734;50.904;6.922;2023-09-18T13:30:33;26.90;99.90
28524;DHT22;15734;50.904;6.922;2023-09-18T13:33:09;26.70;99.90
28524;DHT22;15734;50.904;6.922;2023-09-18T13:35:37;27.00;99.90
28524;DHT22;15734;50.904;6.922;2023-09-18T13:38:04;27.10;99.90
28524;DHT22;15734;50.904;6.922;2023-09-18T13:40:37;26.90;99.90
28524;DHT22;15734;50.904;6.922;2023-09-18T13:43:03;26.50;99.90
28524;DHT22;15734;50.904;6.922;2023-09-18T13:45:30;26.70;99.90
28524;DHT22;15734;50.904;6.922;2023-09-18T13:47:56;26.80;99.90
28524;DHT22;15734;50.904;6.922;2023-09-18T13:50:22;27.20;99.90
28524;DHT22;15734;50.904;6.922;2023-09-18T13:52:47;27.50;99.90
28524;DHT22;15734;50.904;6.922;2023-09-18T13:55:13;27.70;99.90
28524;DHT22;15734;50.904;6.922;2023-09-18T13:57:38;27.50;99.90
28524;DHT22;15734;50.904;6.922;2023-09-18T14:00:06;27.90;99.90
28524;DHT22;15734;50.904;6.922;2023-09-18T14:02:33;28.10;99.00
28524;DHT22;15734;50.904;6.922;2023-09-18T14:04:59;28.00;98.10
28524;DHT22;15734;50.904;6.922;2023-09-18T14:07:25;28.20;97.90
28524;DHT22;15734;50.904;6.922;2023-09-18T14:09:50;28.30;97.00
28524;DHT22;15734;50.904;6.922;2023-09-18T14:12:16;28.20;95.90
28524;DHT22;15734;50.904;6.922;2023-09-18T14:14:42;27.40;96.50
28524;DHT22;15734;50.904;6.922;2023-09-18T14:17:08;27.10;97.10
28524;DHT22;15734;50.904;6.922;2023-09-18T14:19:34;27.20;98.80
28524;DHT22;15734;50.904;6.922;2023-09-18T14:22:00;27.10;98.50
28524;DHT22;15734;50.904;6.922;2023-09-18T14:24:29;27.30;98.30
28524;DHT22;15734;50.904;6.922;2023-09-18T14:26:55;27.30;98.90
28524;DHT22;15734;50.904;6.922;2023-09-18T14:29:21;27.20;99.40
28524;DHT22;15734;50.904;6.922;2023-09-18T14:31:47;27.10;98.90
28524;DHT22;15734;50.904;6.922;2023-09-18T14:34:12;27.00;99.10
28524;DHT22;15734;50.904;6.922;2023-09-18T14:36:39;27.00;99.90
28524;DHT22;15734;50.904;6.922;2023-09-18T14:39:05;26.60;99.30
28524;DHT22;15734;50.904;6.922;2023-09-18T14:41:35;26.70;99.80
28524;DHT22;15734;50.904;6.922;2023-09-18T14:44:01;26.70;99.90
28524;DHT22;15734;50.904;6.922;2023-09-18T14:46:29;26.30;99.90
28524;DHT22;15734;50.904;6.922;2023-09-18T14:48:54;26.40;99.90
28524;DHT22;15734;50.904;6.922;2023-09-18T14:51:20;26.50;99.90
28524;DHT22;15734;50.904;6.922;2023-09-18T14:53:45;26.70;99.90
28524;DHT22;15734;50.904;6.922;2023-09-18T14:56:11;26.40;98.80
28524;DHT22;15734;50.904;6.922;2023-09-18T14:58:37;26.00;99.20
28524;DHT22;15734;50.904;6.922;2023-09-18T15:01:02;26.00;99.50
28524;DHT22;15734;50.904;6.922;2023-09-18T15:03:28;25.80;99.90
28524;DHT22;15734;50.904;6.922;2023-09-18T15:05:54;25.70;99.60
28524;DHT22;15734;50.904;6.922;2023-09-18T15:08:21;25.70;99.90
28524;DHT22;15734;50.904;6.922;2023-09-18T15:10:46;25.80;99.90
28524;DHT22;15734;50.904;6.922;2023-09-18T15:13:12;26.00;99.90
28524;DHT22;15734;50.904;6.922;2023-09-18T15:15:39;26.00;99.90
28524;DHT22;15734;50.904;6.922;2023-09-18T15:18:05;26.00;99.90
28524;DHT22;15734;50.904;6.922;2023-09-18T15:20:31;26.10;99.90
28524;DHT22;15734;50.904;6.922;2023-09-18T15:22:56;26.10;99.90
28524;DHT22;15734;50.904;6.922;2023-09-18T15:25:22;26.00;98.50
28524;DHT22;15734;50.904;6.922;2023-09-18T15:27:48;26.10;99.20
28524;DHT22;15734;50.904;6.922;2023-09-18T15:30:14;26.10;99.20
28524;DHT22;15734;50.904;6.922;2023-09-18T15:32:51;25.90;99.90
28524;DHT22;15734;50.904;6.922;2023-09-18T15:35:25;26.00;99.50